Airfield :
LOGIN :

Register | Disclaimer

   EN    FR    IT 

 










Legend :    VFR   Marginal VFR   IFR   Intensive IFR   Very Intensive IFR
Visi :
Ceiling :
>= 8 km
>= 3000ft
5 to 8 km
1000 to 3000 ft
1500m to 5 km
500 to 1000 ft
800 to 1500m
200 to 500 ft
< 800m
< 200 ft
Symbols :   Thunderstorms  Fog  Heavy snow  Heavy precipitations  Wind > 20 kt
SIGMETs :     Misc.  Thunderstorms  Icing  Turbulence  Mountain Waves  Volcanic Ashes







- Airport Elevation : 876 ft
- IATA code : MBX


LJMB - Maribor

CURRENT METAR :
  • 202300Z AUTO VRB02KT 2100 BR OVC004/// 01/01 Q1013

EXPIRED METARs :
  • 202230Z AUTO VRB01KT 3200 BR OVC003/// 02/01 Q1013
  • 202200Z AUTO 18003KT 3800 BR OVC004/// 02/01 Q1014
  • 202130Z AUTO 20001KT 4000 BR OVC006/// 02/01 Q1013
  • 202100Z 00000KT 5000 BR BKN005 OVC030 02/01 Q1013
  • 202030Z VRB02KT 5000 BR BKN005 OVC032 02/01 Q1012

TAF TAF LJMB
Valid from the 20 at 21:00 until the 21 at 21:00 UTC


202000Z 2021/2121 36005KT 6000 BKN005 OVC030
PROB30
TEMPO 2021/2112 DZ BR BKN005
TEMPO 2021/2106 3500 BR SCT005 BKN030
PROB30
TEMPO 2022/2109 0350 FG VV002
TEMPO 2109/2118 BKN025
No reported NOTAMs for that airfield.



MET'MAP, your aeronautical weather chart ! - Copyright ORBIFLY December 2007 - Disclaimer

ORBIFLY MET'MAP TEAM :

Programming & Development : Alexandra Zaïnal
Concept & Development : Baudouin d'Aumeries
Co-Development & Prog : Marc-Olivier Méhu
Technical & hardware support : Manuel Goepfert

Contact : metmap@orbifly.com




SOURCES & CREDITS :

   NOAA